sensor_id;sensor_type;location;lat;lon;timestamp;pressure;altitude;pressure_sealevel;temperature;humidity
41947;BME280;27638;42.184;24.848;2023-03-13T00:01:54;100214.50;;;8.67;48.88
41947;BME280;27638;42.184;24.848;2023-03-13T00:04:20;100217.84;;;8.88;48.88
41947;BME280;27638;42.184;24.848;2023-03-13T00:06:45;100219.91;;;8.85;48.63
41947;BME280;27638;42.184;24.848;2023-03-13T00:09:13;100215.91;;;8.81;48.79
41947;BME280;27638;42.184;24.848;2023-03-13T00:11:39;100216.84;;;8.89;48.57
41947;BME280;27638;42.184;24.848;2023-03-13T00:14:05;100220.75;;;8.85;49.16
41947;BME280;27638;42.184;24.848;2023-03-13T00:16:31;100215.34;;;8.77;49.79
41947;BME280;27638;42.184;24.848;2023-03-13T00:18:58;100211.44;;;8.72;49.67
41947;BME280;27638;42.184;24.848;2023-03-13T00:21:27;100224.91;;;8.59;49.84
41947;BME280;27638;42.184;24.848;2023-03-13T00:23:54;100218.81;;;8.58;49.96
41947;BME280;27638;42.184;24.848;2023-03-13T00:26:24;100227.84;;;8.66;49.24
41947;BME280;27638;42.184;24.848;2023-03-13T00:28:51;100224.38;;;8.65;49.16
41947;BME280;27638;42.184;24.848;2023-03-13T00:31:19;100220.06;;;8.64;49.25
41947;BME280;27638;42.184;24.848;2023-03-13T00:33:47;100217.56;;;8.62;48.33
41947;BME280;27638;42.184;24.848;2023-03-13T00:36:18;100221.59;;;8.57;48.27
41947;BME280;27638;42.184;24.848;2023-03-13T00:38:44;100217.41;;;8.64;47.38
41947;BME280;27638;42.184;24.848;2023-03-13T00:41:21;100209.63;;;8.62;45.88
41947;BME280;27638;42.184;24.848;2023-03-13T00:43:48;100214.22;;;8.51;46.29
41947;BME280;27638;42.184;24.848;2023-03-13T00:46:15;100214.63;;;8.46;45.82
41947;BME280;27638;42.184;24.848;2023-03-13T00:48:41;100216.72;;;8.52;45.76
41947;BME280;27638;42.184;24.848;2023-03-13T00:51:07;100210.75;;;8.60;45.07
41947;BME280;27638;42.184;24.848;2023-03-13T00:53:33;100209.78;;;8.61;45.09
41947;BME280;27638;42.184;24.848;2023-03-13T00:56:04;100205.31;;;8.61;45.04
41947;BME280;27638;42.184;24.848;2023-03-13T00:58:33;100206.03;;;8.63;44.91
41947;BME280;27638;42.184;24.848;2023-03-13T01:01:17;100209.63;;;8.62;44.67
41947;BME280;27638;42.184;24.848;2023-03-13T01:03:44;100208.53;;;8.65;44.64
41947;BME280;27638;42.184;24.848;2023-03-13T01:06:13;100208.53;;;8.65;44.54
41947;BME280;27638;42.184;24.848;2023-03-13T01:08:39;100198.78;;;8.56;44.09
41947;BME280;27638;42.184;24.848;2023-03-13T01:11:07;100216.72;;;8.62;44.47
41947;BME280;27638;42.184;24.848;2023-03-13T01:13:33;100211.56;;;8.60;43.98
41947;BME280;27638;42.184;24.848;2023-03-13T01:16:07;100211.44;;;8.62;43.82
41947;BME280;27638;42.184;24.848;2023-03-13T01:18:34;100211.88;;;8.67;43.23
41947;BME280;27638;42.184;24.848;2023-03-13T01:21:00;100211.59;;;8.70;43.29
41947;BME280;27638;42.184;24.848;2023-03-13T01:23:26;100216.59;;;8.63;43.55
41947;BME280;27638;42.184;24.848;2023-03-13T01:25:53;100219.34;;;8.52;44.71
41947;BME280;27638;42.184;24.848;2023-03-13T01:28:19;100220.19;;;8.43;45.59
41947;BME280;27638;42.184;24.848;2023-03-13T01:30:44;100230.16;;;8.40;44.70
41947;BME280;27638;42.184;24.848;2023-03-13T01:33:10;100226.56;;;8.10;45.29
41947;BME280;27638;42.184;24.848;2023-03-13T01:35:35;100228.53;;;7.78;46.42
41947;BME280;27638;42.184;24.848;2023-03-13T01:38:01;100230.41;;;7.66;47.21
41947;BME280;27638;42.184;24.848;2023-03-13T01:40:26;100229.97;;;7.61;48.08
41947;BME280;27638;42.184;24.848;2023-03-13T01:42:59;100240.75;;;7.79;47.43
41947;BME280;27638;42.184;24.848;2023-03-13T01:48:14;100242.47;;;7.89;46.91
41947;BME280;27638;42.184;24.848;2023-03-13T01:50:40;100256.66;;;7.98;46.72
41947;BME280;27638;42.184;24.848;2023-03-13T01:53:05;100256.38;;;8.01;47.58
41947;BME280;27638;42.184;24.848;2023-03-13T01:55:31;100258.75;;;8.04;46.67
41947;BME280;27638;42.184;24.848;2023-03-13T01:57:58;100256.47;;;7.90;46.92
41947;BME280;27638;42.184;24.848;2023-03-13T02:00:28;100256.91;;;7.95;46.51
41947;BME280;27638;42.184;24.848;2023-03-13T02:02:59;100262.78;;;8.08;46.79
41947;BME280;27638;42.184;24.848;2023-03-13T02:05:27;100263.09;;;8.15;46.28
41947;BME280;27638;42.184;24.848;2023-03-13T02:08:10;100272.41;;;8.19;46.40
41947;BME280;27638;42.184;24.848;2023-03-13T02:10:41;100283.34;;;8.14;46.91
41947;BME280;27638;42.184;24.848;2023-03-13T02:13:08;100275.56;;;8.13;46.32
41947;BME280;27638;42.184;24.848;2023-03-13T02:15:39;100283.50;;;8.13;47.20
41947;BME280;27638;42.184;24.848;2023-03-13T02:18:05;100288.38;;;7.87;47.53
41947;BME280;27638;42.184;24.848;2023-03-13T02:20:30;100289.59;;;7.83;47.54
41947;BME280;27638;42.184;24.848;2023-03-13T02:23:11;100289.44;;;7.75;47.69
41947;BME280;27638;42.184;24.848;2023-03-13T02:25:42;100298.88;;;7.77;47.43
41947;BME280;27638;42.184;24.848;2023-03-13T02:28:10;100297.34;;;7.54;47.54
41947;BME280;27638;42.184;24.848;2023-03-13T02:30:39;100296.97;;;7.58;47.37
41947;BME280;27638;42.184;24.848;2023-03-13T02:33:06;100304.88;;;7.58;48.22
41947;BME280;27638;42.184;24.848;2023-03-13T02:35:32;100303.41;;;7.45;47.64
41947;BME280;27638;42.184;24.848;2023-03-13T02:38:01;100299.72;;;7.36;47.87
41947;BME280;27638;42.184;24.848;2023-03-13T02:40:34;100301.91;;;7.52;48.13
41947;BME280;27638;42.184;24.848;2023-03-13T02:43:02;100311.44;;;7.43;47.96
41947;BME280;27638;42.184;24.848;2023-03-13T02:45:29;100315.66;;;7.34;47.36
41947;BME280;27638;42.184;24.848;2023-03-13T02:47:54;100315.94;;;6.88;49.11
41947;BME280;27638;42.184;24.848;2023-03-13T02:50:20;100330.03;;;6.98;49.07
41947;BME280;27638;42.184;24.848;2023-03-13T02:52:48;100328.97;;;6.90;48.31
41947;BME280;27638;42.184;24.848;2023-03-13T02:55:22;100336.38;;;6.96;48.23
41947;BME280;27638;42.184;24.848;2023-03-13T02:57:49;100342.47;;;6.53;49.04
41947;BME280;27638;42.184;24.848;2023-03-13T03:00:15;100338.28;;;6.28;49.53
41947;BME280;27638;42.184;24.848;2023-03-13T03:02:44;100333.63;;;6.32;48.29
41947;BME280;27638;42.184;24.848;2023-03-13T03:05:11;100333.25;;;6.36;49.14
41947;BME280;27638;42.184;24.848;2023-03-13T03:07:37;100340.28;;;6.58;48.31
41947;BME280;27638;42.184;24.848;2023-03-13T03:10:03;100342.22;;;6.56;48.96
41947;BME280;27638;42.184;24.848;2023-03-13T03:12:29;100351.06;;;6.55;48.50
41947;BME280;27638;42.184;24.848;2023-03-13T03:14:54;100348.91;;;6.60;47.62
41947;BME280;27638;42.184;24.848;2023-03-13T03:17:19;100349.88;;;6.48;48.05
41947;BME280;27638;42.184;24.848;2023-03-13T03:19:45;100367.78;;;6.65;47.30
41947;BME280;27638;42.184;24.848;2023-03-13T03:22:10;100363.22;;;6.79;47.54
41947;BME280;27638;42.184;24.848;2023-03-13T03:24:36;100369.56;;;6.87;47.01
41947;BME280;27638;42.184;24.848;2023-03-13T03:27:01;100372.75;;;7.02;46.59
41947;BME280;27638;42.184;24.848;2023-03-13T03:29:27;100373.47;;;7.04;45.75
41947;BME280;27638;42.184;24.848;2023-03-13T03:31:52;100380.91;;;6.88;46.06
41947;BME280;27638;42.184;24.848;2023-03-13T03:34:18;100390.41;;;6.68;46.96
41947;BME280;27638;42.184;24.848;2023-03-13T03:36:44;100391.72;;;6.51;47.32
41947;BME280;27638;42.184;24.848;2023-03-13T03:39:10;100386.34;;;6.53;47.73
41947;BME280;27638;42.184;24.848;2023-03-13T03:41:35;100395.19;;;6.63;47.60
41947;BME280;27638;42.184;24.848;2023-03-13T03:44:02;100399.25;;;6.67;46.88
41947;BME280;27638;42.184;24.848;2023-03-13T03:46:27;100395.69;;;6.46;47.68
41947;BME280;27638;42.184;24.848;2023-03-13T03:48:53;100401.38;;;6.17;47.88
41947;BME280;27638;42.184;24.848;2023-03-13T03:51:19;100397.75;;;5.96;48.93
41947;BME280;27638;42.184;24.848;2023-03-13T03:53:45;100409.88;;;5.86;49.65
41947;BME280;27638;42.184;24.848;2023-03-13T03:56:10;100411.06;;;5.82;49.84
41947;BME280;27638;42.184;24.848;2023-03-13T03:58:35;100417.47;;;5.90;49.39
41947;BME280;27638;42.184;24.848;2023-03-13T04:01:01;100422.97;;;5.98;49.54
41947;BME280;27638;42.184;24.848;2023-03-13T04:03:26;100418.66;;;5.97;49.45
41947;BME280;27638;42.184;24.848;2023-03-13T04:05:52;100426.44;;;5.99;49.10
41947;BME280;27638;42.184;24.848;2023-03-13T04:08:18;100433.03;;;5.81;49.50
41947;BME280;27638;42.184;24.848;2023-03-13T04:10:43;100439.63;;;5.51;50.62
41947;BME280;27638;42.184;24.848;2023-03-13T04:13:09;100444.84;;;5.75;49.65
41947;BME280;27638;42.184;24.848;2023-03-13T04:15:34;100445.19;;;5.70;50.10
41947;BME280;27638;42.184;24.848;2023-03-13T04:18:02;100439.72;;;5.73;50.02
41947;BME280;27638;42.184;24.848;2023-03-13T04:20:27;100441.66;;;5.83;49.26
41947;BME280;27638;42.184;24.848;2023-03-13T04:22:53;100447.63;;;5.85;49.68
41947;BME280;27638;42.184;24.848;2023-03-13T04:25:19;100448.31;;;5.99;48.80
41947;BME280;27638;42.184;24.848;2023-03-13T04:27:44;100453.13;;;6.17;48.19
41947;BME280;27638;42.184;24.848;2023-03-13T04:30:10;100452.41;;;6.15;48.12
41947;BME280;27638;42.184;24.848;2023-03-13T04:32:36;100455.63;;;6.07;48.66
41947;BME280;27638;42.184;24.848;2023-03-13T04:35:01;100457.38;;;5.95;48.82
41947;BME280;27638;42.184;24.848;2023-03-13T04:37:27;100464.66;;;5.92;48.78
41947;BME280;27638;42.184;24.848;2023-03-13T04:39:52;100481.25;;;5.92;48.66
41947;BME280;27638;42.184;24.848;2023-03-13T04:42:18;100480.13;;;5.84;48.90
41947;BME280;27638;42.184;24.848;2023-03-13T04:44:43;100482.59;;;5.74;48.94
41947;BME280;27638;42.184;24.848;2023-03-13T04:47:08;100481.25;;;5.68;49.90
41947;BME280;27638;42.184;24.848;2023-03-13T04:49:34;100486.84;;;5.64;49.79
41947;BME280;27638;42.184;24.848;2023-03-13T04:51:59;100488.13;;;5.58;49.83
41947;BME280;27638;42.184;24.848;2023-03-13T04:54:25;100493.16;;;5.61;50.36
41947;BME280;27638;42.184;24.848;2023-03-13T04:56:50;100492.72;;;5.67;49.94
41947;BME280;27638;42.184;24.848;2023-03-13T04:59:16;100503.84;;;5.71;50.52
41947;BME280;27638;42.184;24.848;2023-03-13T05:01:42;100492.84;;;5.66;50.18
41947;BME280;27638;42.184;24.848;2023-03-13T05:04:08;100501.16;;;5.60;50.94
41947;BME280;27638;42.184;24.848;2023-03-13T05:06:34;100504.13;;;5.55;50.59
41947;BME280;27638;42.184;24.848;2023-03-13T05:09:00;100506.41;;;5.60;50.88
41947;BME280;27638;42.184;24.848;2023-03-13T05:11:25;100506.91;;;5.65;50.52
41947;BME280;27638;42.184;24.848;2023-03-13T05:13:51;100508.03;;;5.73;49.93
41947;BME280;27638;42.184;24.848;2023-03-13T05:16:16;100521.72;;;5.66;50.50
41947;BME280;27638;42.184;24.848;2023-03-13T05:18:43;100528.38;;;5.59;50.36
41947;BME280;27638;42.184;24.848;2023-03-13T05:21:08;100522.63;;;5.54;50.65
41947;BME280;27638;42.184;24.848;2023-03-13T05:23:34;100526.41;;;5.50;51.12
41947;BME280;27638;42.184;24.848;2023-03-13T05:25:59;100527.09;;;5.40;51.32
41947;BME280;27638;42.184;24.848;2023-03-13T05:28:25;100535.59;;;5.68;51.30
41947;BME280;27638;42.184;24.848;2023-03-13T05:30:51;100542.06;;;5.51;51.78
41947;BME280;27638;42.184;24.848;2023-03-13T05:33:16;100536.44;;;5.68;51.55
41947;BME280;27638;42.184;24.848;2023-03-13T05:35:44;100542.91;;;5.75;51.48
41947;BME280;27638;42.184;24.848;2023-03-13T05:38:09;100544.00;;;5.73;52.17
41947;BME280;27638;42.184;24.848;2023-03-13T05:40:35;100537.78;;;5.74;51.86
41947;BME280;27638;42.184;24.848;2023-03-13T05:43:00;100546.94;;;5.68;53.20
41947;BME280;27638;42.184;24.848;2023-03-13T05:45:26;100557.38;;;5.94;52.67
41947;BME280;27638;42.184;24.848;2023-03-13T05:47:51;100558.81;;;6.22;51.03
41947;BME280;27638;42.184;24.848;2023-03-13T05:50:16;100556.25;;;6.33;51.07
41947;BME280;27638;42.184;24.848;2023-03-13T05:52:42;100562.34;;;6.09;51.86
41947;BME280;27638;42.184;24.848;2023-03-13T05:55:08;100565.19;;;6.06;52.07
41947;BME280;27638;42.184;24.848;2023-03-13T05:57:33;100567.03;;;6.41;51.43
41947;BME280;27638;42.184;24.848;2023-03-13T05:59:59;100564.44;;;6.63;50.51
41947;BME280;27638;42.184;24.848;2023-03-13T06:02:24;100568.06;;;6.73;50.48
41947;BME280;27638;42.184;24.848;2023-03-13T06:04:50;100561.84;;;6.86;50.96
41947;BME280;27638;42.184;24.848;2023-03-13T06:07:15;100564.13;;;6.90;50.69
41947;BME280;27638;42.184;24.848;2023-03-13T06:09:41;100569.97;;;6.83;50.11
41947;BME280;27638;42.184;24.848;2023-03-13T06:12:10;100574.53;;;6.92;50.05
41947;BME280;27638;42.184;24.848;2023-03-13T06:14:36;100572.75;;;7.26;50.07
41947;BME280;27638;42.184;24.848;2023-03-13T06:17:03;100568.06;;;7.63;48.92
41947;BME280;27638;42.184;24.848;2023-03-13T06:19:28;100573.03;;;7.88;47.56
41947;BME280;27638;42.184;24.848;2023-03-13T06:21:54;100574.34;;;7.83;46.21
41947;BME280;27638;42.184;24.848;2023-03-13T06:24:19;100573.09;;;7.98;46.83
41947;BME280;27638;42.184;24.848;2023-03-13T06:26:47;100575.69;;;8.09;46.69
41947;BME280;27638;42.184;24.848;2023-03-13T06:29:12;100584.28;;;8.22;45.42
41947;BME280;27638;42.184;24.848;2023-03-13T06:31:38;100580.56;;;8.25;45.93
41947;BME280;27638;42.184;24.848;2023-03-13T06:34:03;100586.69;;;8.37;45.48
41947;BME280;27638;42.184;24.848;2023-03-13T06:36:29;100590.47;;;8.44;45.98
41947;BME280;27638;42.184;24.848;2023-03-13T06:38:54;100587.72;;;8.66;45.97
41947;BME280;27638;42.184;24.848;2023-03-13T06:41:20;100579.47;;;8.80;45.43
41947;BME280;27638;42.184;24.848;2023-03-13T06:43:45;100587.97;;;8.84;44.54
41947;BME280;27638;42.184;24.848;2023-03-13T06:46:18;100584.22;;;8.86;44.28
41947;BME280;27638;42.184;24.848;2023-03-13T06:48:45;100581.75;;;8.94;44.28
41947;BME280;27638;42.184;24.848;2023-03-13T06:51:15;100575.34;;;9.18;44.08
41947;BME280;27638;42.184;24.848;2023-03-13T06:53:41;100580.84;;;9.36;44.11
41947;BME280;27638;42.184;24.848;2023-03-13T06:56:08;100585.25;;;9.66;43.96
41947;BME280;27638;42.184;24.848;2023-03-13T06:58:33;100581.00;;;9.93;43.53
41947;BME280;27638;42.184;24.848;2023-03-13T07:01:06;100586.56;;;10.00;42.37
41947;BME280;27638;42.184;24.848;2023-03-13T07:03:32;100586.84;;;10.07;42.86
41947;BME280;27638;42.184;24.848;2023-03-13T07:05:58;100584.34;;;9.96;42.95
41947;BME280;27638;42.184;24.848;2023-03-13T07:08:24;100578.94;;;10.16;42.38
41947;BME280;27638;42.184;24.848;2023-03-13T07:10:50;100576.88;;;10.30;42.23
41947;BME280;27638;42.184;24.848;2023-03-13T07:13:16;100574.34;;;10.38;42.04
41947;BME280;27638;42.184;24.848;2023-03-13T07:15:44;100578.09;;;10.74;41.97
41947;BME280;27638;42.184;24.848;2023-03-13T07:18:09;100569.31;;;10.73;40.81
41947;BME280;27638;42.184;24.848;2023-03-13T07:20:35;100580.69;;;10.93;41.36
41947;BME280;27638;42.184;24.848;2023-03-13T07:23:00;100577.44;;;11.09;40.66
41947;BME280;27638;42.184;24.848;2023-03-13T07:25:26;100579.13;;;11.00;40.05
41947;BME280;27638;42.184;24.848;2023-03-13T07:27:51;100572.50;;;11.24;40.73
41947;BME280;27638;42.184;24.848;2023-03-13T07:30:18;100569.78;;;11.33;39.66
41947;BME280;27638;42.184;24.848;2023-03-13T07:32:43;100572.00;;;11.47;39.54
41947;BME280;27638;42.184;24.848;2023-03-13T07:35:09;100572.38;;;11.52;39.54
41947;BME280;27638;42.184;24.848;2023-03-13T07:37:34;100574.06;;;11.54;39.14
41947;BME280;27638;42.184;24.848;2023-03-13T07:40:00;100572.00;;;11.38;39.52
41947;BME280;27638;42.184;24.848;2023-03-13T07:42:25;100568.88;;;11.25;39.40
41947;BME280;27638;42.184;24.848;2023-03-13T07:44:52;100567.94;;;11.43;38.38
41947;BME280;27638;42.184;24.848;2023-03-13T07:47:17;100567.47;;;11.20;38.54
41947;BME280;27638;42.184;24.848;2023-03-13T07:49:43;100568.53;;;11.37;38.80
41947;BME280;27638;42.184;24.848;2023-03-13T07:52:10;100571.69;;;11.50;38.86
41947;BME280;27638;42.184;24.848;2023-03-13T07:54:36;100570.31;;;11.46;38.35
41947;BME280;27638;42.184;24.848;2023-03-13T07:57:01;100568.06;;;11.51;38.34
41947;BME280;27638;42.184;24.848;2023-03-13T07:59:27;100560.50;;;11.57;39.64
41947;BME280;27638;42.184;24.848;2023-03-13T08:01:52;100564.53;;;11.61;38.64
41947;BME280;27638;42.184;24.848;2023-03-13T08:04:18;100565.94;;;11.82;39.08
41947;BME280;27638;42.184;24.848;2023-03-13T08:06:44;100566.78;;;12.01;38.05
41947;BME280;27638;42.184;24.848;2023-03-13T08:09:09;100567.78;;;12.18;37.82
41947;BME280;27638;42.184;24.848;2023-03-13T08:11:35;100560.94;;;12.33;37.62
41947;BME280;27638;42.184;24.848;2023-03-13T08:14:02;100545.34;;;12.12;36.71
41947;BME280;27638;42.184;24.848;2023-03-13T08:16:30;100538.13;;;12.22;37.76
41947;BME280;27638;42.184;24.848;2023-03-13T08:18:58;100531.09;;;12.39;37.41
41947;BME280;27638;42.184;24.848;2023-03-13T08:21:30;100546.53;;;12.35;36.98
41947;BME280;27638;42.184;24.848;2023-03-13T08:23:57;100531.72;;;12.76;37.08
41947;BME280;27638;42.184;24.848;2023-03-13T08:26:26;100535.47;;;12.92;35.93
41947;BME280;27638;42.184;24.848;2023-03-13T08:28:54;100531.53;;;13.04;35.21
41947;BME280;27638;42.184;24.848;2023-03-13T08:31:25;100540.22;;;13.14;35.66
41947;BME280;27638;42.184;24.848;2023-03-13T08:33:51;100537.72;;;13.13;35.85
41947;BME280;27638;42.184;24.848;2023-03-13T08:36:22;100535.41;;;13.09;34.97
41947;BME280;27638;42.184;24.848;2023-03-13T08:38:50;100533.25;;;13.13;35.08
41947;BME280;27638;42.184;24.848;2023-03-13T08:41:22;100539.16;;;13.25;35.08
41947;BME280;27638;42.184;24.848;2023-03-13T08:43:48;100537.19;;;13.35;34.64
41947;BME280;27638;42.184;24.848;2023-03-13T08:46:14;100534.13;;;13.56;35.09
41947;BME280;27638;42.184;24.848;2023-03-13T08:48:40;100543.41;;;13.52;34.90
41947;BME280;27638;42.184;24.848;2023-03-13T08:51:09;100535.84;;;13.73;33.87
41947;BME280;27638;42.184;24.848;2023-03-13T08:53:35;100535.03;;;13.81;34.83
41947;BME280;27638;42.184;24.848;2023-03-13T08:56:02;100541.03;;;13.83;33.80
41947;BME280;27638;42.184;24.848;2023-03-13T08:58:28;100541.19;;;13.89;33.24
41947;BME280;27638;42.184;24.848;2023-03-13T09:00:59;100535.66;;;13.66;32.58
41947;BME280;27638;42.184;24.848;2023-03-13T09:03:25;100538.00;;;13.69;33.74
41947;BME280;27638;42.184;24.848;2023-03-13T09:05:50;100531.22;;;13.91;33.65
41947;BME280;27638;42.184;24.848;2023-03-13T09:08:16;100544.88;;;13.96;32.71
41947;BME280;27638;42.184;24.848;2023-03-13T09:10:41;100546.19;;;13.92;33.27
41947;BME280;27638;42.184;24.848;2023-03-13T09:13:07;100546.22;;;14.00;32.87
41947;BME280;27638;42.184;24.848;2023-03-13T09:15:32;100541.53;;;13.94;34.11
41947;BME280;27638;42.184;24.848;2023-03-13T09:17:57;100542.53;;;13.85;33.11
41947;BME280;27638;42.184;24.848;2023-03-13T09:20:23;100532.16;;;13.58;33.43
41947;BME280;27638;42.184;24.848;2023-03-13T09:22:48;100530.19;;;13.68;32.26
41947;BME280;27638;42.184;24.848;2023-03-13T09:25:14;100527.34;;;13.27;32.22
41947;BME280;27638;42.184;24.848;2023-03-13T09:27:39;100527.69;;;12.98;32.01
41947;BME280;27638;42.184;24.848;2023-03-13T09:30:05;100525.56;;;12.76;33.39
41947;BME280;27638;42.184;24.848;2023-03-13T09:32:31;100523.59;;;12.52;32.87
41947;BME280;27638;42.184;24.848;2023-03-13T09:34:57;100523.41;;;12.71;32.97
41947;BME280;27638;42.184;24.848;2023-03-13T09:37:23;100521.78;;;12.78;32.73
41947;BME280;27638;42.184;24.848;2023-03-13T09:39:49;100525.22;;;12.71;32.49
41947;BME280;27638;42.184;24.848;2023-03-13T09:42:26;100515.44;;;12.71;32.04
41947;BME280;27638;42.184;24.848;2023-03-13T09:45:01;100516.88;;;12.66;32.88
41947;BME280;27638;42.184;24.848;2023-03-13T09:47:46;100504.81;;;12.28;34.00
41947;BME280;27638;42.184;24.848;2023-03-13T09:50:17;100505.75;;;12.62;31.48
41947;BME280;27638;42.184;24.848;2023-03-13T09:52:47;100513.19;;;12.41;30.71
41947;BME280;27638;42.184;24.848;2023-03-13T09:55:35;100510.31;;;12.52;31.01
41947;BME280;27638;42.184;24.848;2023-03-13T09:58:10;100495.88;;;12.11;31.90
41947;BME280;27638;42.184;24.848;2023-03-13T10:00:39;100500.91;;;12.40;31.43
41947;BME280;27638;42.184;24.848;2023-03-13T10:03:30;100498.22;;;12.58;30.06
41947;BME280;27638;42.184;24.848;2023-03-13T10:06:03;100488.88;;;12.28;29.67
41947;BME280;27638;42.184;24.848;2023-03-13T10:08:32;100486.31;;;12.18;29.24
41947;BME280;27638;42.184;24.848;2023-03-13T10:16:40;100484.19;;;12.04;29.82
41947;BME280;27638;42.184;24.848;2023-03-13T10:19:13;100489.44;;;11.78;30.35
41947;BME280;27638;42.184;24.848;2023-03-13T10:21:41;100480.88;;;12.02;31.19
41947;BME280;27638;42.184;24.848;2023-03-13T10:26:35;100481.25;;;12.51;28.29
41947;BME280;27638;42.184;24.848;2023-03-13T10:29:22;100466.75;;;12.45;29.50
41947;BME280;27638;42.184;24.848;2023-03-13T10:31:55;100467.81;;;12.52;29.87
41947;BME280;27638;42.184;24.848;2023-03-13T10:34:23;100470.06;;;12.47;28.38
41947;BME280;27638;42.184;24.848;2023-03-13T10:36:54;100467.00;;;12.86;29.44
41947;BME280;27638;42.184;24.848;2023-03-13T10:39:23;100464.78;;;13.15;28.08
41947;BME280;27638;42.184;24.848;2023-03-13T10:41:49;100464.88;;;13.31;27.41
41947;BME280;27638;42.184;24.848;2023-03-13T10:44:23;100459.44;;;13.07;29.59
41947;BME280;27638;42.184;24.848;2023-03-13T10:46:58;100443.59;;;12.89;29.24
41947;BME280;27638;42.184;24.848;2023-03-13T10:49:25;100444.88;;;12.77;27.94
41947;BME280;27638;42.184;24.848;2023-03-13T10:51:55;100446.28;;;12.97;27.98
41947;BME280;27638;42.184;24.848;2023-03-13T10:54:22;100453.88;;;13.18;27.61
41947;BME280;27638;42.184;24.848;2023-03-13T10:56:49;100442.09;;;12.87;28.57
41947;BME280;27638;42.184;24.848;2023-03-13T10:59:25;100434.50;;;13.00;27.49
41947;BME280;27638;42.184;24.848;2023-03-13T11:01:52;100425.97;;;12.88;27.25
41947;BME280;27638;42.184;24.848;2023-03-13T11:04:33;100426.34;;;12.59;27.30
41947;BME280;27638;42.184;24.848;2023-03-13T11:07:26;100423.69;;;12.33;27.94
41947;BME280;27638;42.184;24.848;2023-03-13T11:10:18;100422.81;;;12.25;26.79
41947;BME280;27638;42.184;24.848;2023-03-13T11:12:52;100416.81;;;12.49;27.01
41947;BME280;27638;42.184;24.848;2023-03-13T11:15:22;100412.16;;;12.76;25.82
41947;BME280;27638;42.184;24.848;2023-03-13T11:18:14;100402.59;;;13.00;25.15
41947;BME280;27638;42.184;24.848;2023-03-13T11:20:43;100396.97;;;13.11;24.63
41947;BME280;27638;42.184;24.848;2023-03-13T11:31:14;100397.91;;;13.52;25.43
41947;BME280;27638;42.184;24.848;2023-03-13T11:36:34;100386.38;;;13.19;24.34
41947;BME280;27638;42.184;24.848;2023-03-13T11:44:29;100378.88;;;13.15;25.50
41947;BME280;27638;42.184;24.848;2023-03-13T11:49:47;100364.56;;;12.57;24.18
41947;BME280;27638;42.184;24.848;2023-03-13T11:58:03;100353.53;;;12.86;27.10
41947;BME280;27638;42.184;24.848;2023-03-13T12:00:47;100347.75;;;12.91;25.45
41947;BME280;27638;42.184;24.848;2023-03-13T12:06:06;100340.63;;;12.99;24.41
41947;BME280;27638;42.184;24.848;2023-03-13T12:08:45;100337.81;;;13.09;24.08
41947;BME280;27638;42.184;24.848;2023-03-13T12:11:32;100337.16;;;13.15;25.20
41947;BME280;27638;42.184;24.848;2023-03-13T12:14:02;100337.81;;;13.09;25.59
41947;BME280;27638;42.184;24.848;2023-03-13T12:19:10;100332.31;;;13.10;25.71
41947;BME280;27638;42.184;24.848;2023-03-13T12:21:46;100321.66;;;12.94;25.43
41947;BME280;27638;42.184;24.848;2023-03-13T12:24:31;100326.38;;;13.17;24.59
41947;BME280;27638;42.184;24.848;2023-03-13T12:29:53;100324.41;;;13.27;24.24
41947;BME280;27638;42.184;24.848;2023-03-13T12:32:38;100310.97;;;12.70;26.16
41947;BME280;27638;42.184;24.848;2023-03-13T12:37:53;100313.13;;;12.66;25.16
41947;BME280;27638;42.184;24.848;2023-03-13T12:40:27;100313.97;;;12.75;25.69
41947;BME280;27638;42.184;24.848;2023-03-13T12:42:57;100322.66;;;12.93;24.72
41947;BME280;27638;42.184;24.848;2023-03-13T12:45:26;100311.88;;;13.03;24.42
41947;BME280;27638;42.184;24.848;2023-03-13T13:01:48;100308.44;;;13.35;24.14
41947;BME280;27638;42.184;24.848;2023-03-13T13:04:18;100310.59;;;13.48;24.83
41947;BME280;27638;42.184;24.848;2023-03-13T13:06:53;100303.81;;;13.61;25.10
41947;BME280;27638;42.184;24.848;2023-03-13T13:09:34;100312.59;;;13.29;23.98
41947;BME280;27638;42.184;24.848;2023-03-13T13:12:17;100315.84;;;12.91;24.66
41947;BME280;27638;42.184;24.848;2023-03-13T13:27:56;100299.69;;;12.68;26.87
41947;BME280;27638;42.184;24.848;2023-03-13T13:30:34;100292.75;;;12.83;26.20
41947;BME280;27638;42.184;24.848;2023-03-13T13:38:47;100277.19;;;13.29;24.45
41947;BME280;27638;42.184;24.848;2023-03-13T13:43:40;100271.00;;;12.88;24.79
41947;BME280;27638;42.184;24.848;2023-03-13T13:46:29;100270.81;;;12.89;25.63
41947;BME280;27638;42.184;24.848;2023-03-13T13:49:17;100268.84;;;12.99;25.37
41947;BME280;27638;42.184;24.848;2023-03-13T13:54:52;100273.47;;;12.81;25.82
41947;BME280;27638;42.184;24.848;2023-03-13T13:57:24;100270.16;;;12.79;25.11
41947;BME280;27638;42.184;24.848;2023-03-13T13:59:56;100270.50;;;13.08;25.04
41947;BME280;27638;42.184;24.848;2023-03-13T14:02:53;100267.88;;;13.25;25.03
41947;BME280;27638;42.184;24.848;2023-03-13T14:05:28;100260.91;;;13.32;25.84
41947;BME280;27638;42.184;24.848;2023-03-13T14:08:07;100266.88;;;13.26;26.30
41947;BME280;27638;42.184;24.848;2023-03-13T14:10:42;100253.41;;;13.43;25.84
41947;BME280;27638;42.184;24.848;2023-03-13T14:13:18;100255.41;;;13.50;25.53
41947;BME280;27638;42.184;24.848;2023-03-13T14:15:45;100255.41;;;13.50;25.99
41947;BME280;27638;42.184;24.848;2023-03-13T14:18:26;100250.59;;;13.37;25.50